Vahine — OJ3548 — position and weather

sailwx.info

Track history (hours):
 
Tides and Currents Weather Stations Pressure Air Temp Water Temp Dewpoint Dewpoint Depression Visibility Wind Speed Wind Dir Waves Ship Positions

Vahine

Last reported at 2018-Feb-20 18:49 UTC. Time now 2018-Feb-20 19:37 UTC.
Position N 17°17' W 062°46'.

Length 20 m.

Type: Sailing vessel. MMSI: 230125970.

Date/timePositionNaut miles runAvg speedWind from/ knotsBaromVisibWave heightAir tempDewpointWater temp
2018-Feb-20 18:49N 17°17' W 062°46'11 5.4
2018-Feb-20 16:45N 17°23' W 062°56'24 1.2
2018-Feb-19 21:18N 17°38' W 063°15'1 0.1
2018-Feb-19 17:14N 17°38' W 063°16'3 8.6
2018-Feb-19 16:57N 17°40' W 063°15'5 9.1
2018-Feb-19 16:26N 17°45' W 063°14'5 9.2
2018-Feb-19 15:53N 17°49' W 063°12'5 9.2
2018-Feb-19 15:22N 17°54' W 063°12'4 9.0
2018-Feb-19 14:54N 17°58' W 063°12'5 8.4
2018-Feb-19 14:20N 18°03' W 063°12'3 8.3
2018-Feb-19 14:00N 18°06' W 063°11'6 0.1
2018-Feb-17 17:28N 18°11' W 063°10'3 5.5
2018-Feb-17 16:57N 18°08' W 063°10'4 7.6
2018-Feb-17 16:28N 18°06' W 063°07'2 4.4
2018-Feb-17 15:57N 18°04' W 063°05'0 0.4
2018-Feb-17 15:27N 18°04' W 063°05'0 0.0
2018-Feb-17 14:51N 18°04' W 063°05'0 0.0
2018-Feb-17 14:27N 18°04' W 063°05'0 0.0
2018-Feb-17 13:54N 18°04' W 063°05'0 0.0
2018-Feb-17 13:27N 18°04' W 063°05'0 0.0
2018-Feb-17 12:54N 18°04' W 063°05'0 0.0
2018-Feb-17 12:27N 18°04' W 063°05'0 0.0
2018-Feb-17 12:00N 18°04' W 063°05'0 0.0
2018-Feb-17 11:30N 18°04' W 063°05'0 0.0
2018-Feb-17 11:00N 18°04' W 063°05'0 0.0
2018-Feb-17 10:30N 18°04' W 063°05'0 0.0
2018-Feb-17 09:45N 18°04' W 063°05'0 0.0
2018-Feb-17 09:30N 18°04' W 063°05'0 0.0
2018-Feb-17 09:00N 18°04' W 063°05'0 0.0
2018-Feb-17 08:30N 18°04' W 063°05'0 0.0
2018-Feb-17 08:00N 18°04' W 063°05'0 0.0
2018-Feb-17 07:30N 18°04' W 063°05'0 0.0
2018-Feb-17 07:00N 18°04' W 063°05'0 0.0
2018-Feb-17 06:30N 18°04' W 063°05'0 0.0
2018-Feb-17 06:00N 18°04' W 063°05'0 0.0
2018-Feb-17 05:21N 18°04' W 063°05'0 0.0
2018-Feb-17 04:48N 18°04' W 063°05'0 0.0
2018-Feb-17 04:21N 18°04' W 063°05'0 0.0
2018-Feb-17 03:54N 18°04' W 063°05'0 0.0
2018-Feb-17 03:24N 18°04' W 063°05'0 0.0
2018-Feb-17 02:48N 18°04' W 063°05'0 0.0
2018-Feb-17 02:24N 18°04' W 063°05'0 0.0
2018-Feb-17 01:57N 18°04' W 063°05'0 0.0
2018-Feb-17 01:24N 18°04' W 063°05'0 0.0
2018-Feb-17 00:57N 18°04' W 063°05'0 0.0
2018-Feb-17 00:27N 18°04' W 063°05'0 0.0
2018-Feb-16 23:57N 18°04' W 063°05'0 0.0
2018-Feb-16 23:27N 18°04' W 063°05'0 0.0
2018-Feb-16 22:57N 18°04' W 063°05'0 0.0
2018-Feb-16 22:30N 18°04' W 063°05'0 0.0
2018-Feb-16 22:00N 18°04' W 063°05'0 0.0
2018-Feb-16 21:30N 18°04' W 063°05'0 0.0
2018-Feb-16 20:57N 18°04' W 063°05'0 0.0
2018-Feb-16 20:30N 18°04' W 063°05'0 0.0
2018-Feb-16 20:00N 18°04' W 063°05'0 0.0
2018-Feb-16 19:30N 18°04' W 063°05'0 0.0
2018-Feb-16 18:57N 18°04' W 063°05'0 0.0
2018-Feb-16 18:30N 18°04' W 063°05'0 0.0
2018-Feb-16 18:00N 18°04' W 063°05'0 0.0
2018-Feb-16 17:30N 18°04' W 063°05'0 0.0
2018-Feb-16 17:00N 18°04' W 063°05'0 0.0
2018-Feb-16 16:21N 18°04' W 063°05'0 0.0
2018-Feb-16 15:51N 18°04' W 063°05'0 0.0
2018-Feb-16 15:18N 18°04' W 063°05'0 0.0
2018-Feb-16 14:51N 18°04' W 063°05'0 0.0
2018-Feb-16 14:21N 18°04' W 063°05'0 0.0
2018-Feb-16 13:54N 18°04' W 063°05'0 0.0
2018-Feb-16 13:24N 18°04' W 063°05'0 0.0
2018-Feb-16 12:54N 18°04' W 063°05'0 0.0
2018-Feb-16 12:24N 18°04' W 063°05'0 0.0
2018-Feb-16 11:54N 18°04' W 063°05'0 0.0
2018-Feb-16 11:27N 18°04' W 063°05'0 0.0
2018-Feb-16 10:57N 18°04' W 063°05'0 0.0
2018-Feb-16 10:27N 18°04' W 063°05'0 0.0
2018-Feb-16 09:54N 18°04' W 063°05'0 0.0
2018-Feb-16 09:27N 18°04' W 063°05'0 0.0
2018-Feb-16 08:57N 18°04' W 063°05'0 0.0
2018-Feb-16 08:30N 18°04' W 063°05'0 0.0
2018-Feb-16 08:00N 18°04' W 063°05'0 0.0
2018-Feb-16 07:30N 18°04' W 063°05'0 0.0
2018-Feb-16 07:00N 18°04' W 063°05'0 0.0
2018-Feb-16 06:30N 18°04' W 063°05'0 0.0
2018-Feb-16 06:00N 18°04' W 063°05'0 0.0
2018-Feb-16 05:30N 18°04' W 063°05'0 0.0
2018-Feb-16 04:48N 18°04' W 063°05'0 0.0
2018-Feb-16 04:18N 18°04' W 063°05'0 0.0
2018-Feb-16 04:00N 18°04' W 063°05'0 0.0
2018-Feb-16 03:30N 18°04' W 063°05'0 0.0
2018-Feb-16 02:51N 18°04' W 063°05'0 0.0
2018-Feb-16 02:30N 18°04' W 063°05'0 0.0
2018-Feb-16 01:51N 18°04' W 063°05'0 0.0
2018-Feb-16 01:09N 18°04' W 063°05'0 0.0
2018-Feb-16 00:51N 18°04' W 063°05'0 0.0
2018-Feb-16 00:24N 18°04' W 063°05'0 0.0
2018-Feb-15 23:54N 18°04' W 063°05'0 0.0
2018-Feb-15 23:09N 18°04' W 063°05'0 0.0
2018-Feb-15 22:51N 18°04' W 063°05'0 0.0
2018-Feb-15 22:24N 18°04' W 063°05'0 0.0
2018-Feb-15 21:54N 18°04' W 063°05'0 0.0
2018-Feb-15 21:27N 18°04' W 063°05'0 0.0
2018-Feb-15 20:54N 18°04' W 063°05'0 0.0
2018-Feb-15 20:27N 18°04' W 063°05'0 0.0
2018-Feb-15 19:57N 18°04' W 063°05'0 0.0
2018-Feb-15 19:27N 18°04' W 063°05'0 0.0
2018-Feb-15 18:57N 18°04' W 063°05'0 0.0
2018-Feb-15 18:27N 18°04' W 063°05'0 0.0
2018-Feb-15 18:00N 18°04' W 063°05'0 0.0
2018-Feb-15 17:30N 18°04' W 063°05'0 0.0
2018-Feb-15 17:00N 18°04' W 063°05'0 0.0
2018-Feb-15 16:30N 18°04' W 063°05'0 0.0
2018-Feb-15 16:00N 18°04' W 063°05'0 0.0
2018-Feb-15 15:30N 18°04' W 063°05'0 0.0
2018-Feb-15 15:00N 18°04' W 063°05'0 0.0
2018-Feb-15 14:30N 18°04' W 063°05'0 0.0
2018-Feb-15 14:00N 18°04' W 063°05'0 0.0
2018-Feb-15 13:30N 18°04' W 063°05'0 0.0
2018-Feb-15 13:00N 18°04' W 063°05'0 0.0
2018-Feb-15 12:21N 18°04' W 063°05'0 0.0
2018-Feb-15 11:48N 18°04' W 063°05'0 0.0
2018-Feb-15 11:18N 18°04' W 063°05'0 0.0
2018-Feb-15 10:54N 18°04' W 063°05'0 0.0
2018-Feb-15 10:24N 18°04' W 063°05'0 0.0
2018-Feb-15 09:54N 18°04' W 063°05'0 0.0
2018-Feb-15 09:24N 18°04' W 063°05'0 0.0
2018-Feb-15 08:51N 18°04' W 063°05'0 0.0
2018-Feb-15 08:24N 18°04' W 063°05'0 0.0
2018-Feb-15 07:57N 18°04' W 063°05'0 0.0
2018-Feb-15 07:27N 18°04' W 063°05'0 0.0
2018-Feb-15 06:57N 18°04' W 063°05'0 0.0
2018-Feb-15 06:24N 18°04' W 063°05'0 0.0
2018-Feb-15 06:00N 18°04' W 063°05'0 0.0
2018-Feb-15 05:30N 18°04' W 063°05'0 0.0
2018-Feb-15 05:00N 18°04' W 063°05'0 0.0
2018-Feb-15 04:30N 18°04' W 063°05'0 0.0
2018-Feb-15 04:00N 18°04' W 063°05'0 0.0
2018-Feb-15 03:30N 18°04' W 063°05'0 0.0
2018-Feb-15 03:00N 18°04' W 063°05'0 0.0
2018-Feb-15 02:27N 18°04' W 063°05'0 0.0
2018-Feb-15 02:00N 18°04' W 063°05'0 0.0
2018-Feb-15 01:30N 18°04' W 063°05'0 0.0
2018-Feb-15 01:00N 18°04' W 063°05'0 0.0
2018-Feb-15 00:30N 18°04' W 063°05'0 0.0
2018-Feb-15 00:00N 18°04' W 063°05'0 0.0
2018-Feb-14 23:30N 18°04' W 063°05'0 0.0
2018-Feb-14 23:00N 18°04' W 063°05'0 0.0
2018-Feb-14 22:21N 18°04' W 063°05'0 0.0
2018-Feb-14 21:54N 18°04' W 063°05'0 0.0
2018-Feb-14 21:24N 18°04' W 063°05'0 0.0
2018-Feb-14 20:54N 18°04' W 063°05'0 0.0
2018-Feb-14 20:24N 18°04' W 063°05'0 0.0
2018-Feb-14 19:39N 18°04' W 063°05'0 0.0
2018-Feb-14 19:24N 18°04' W 063°05'0 0.0
2018-Feb-14 18:57N 18°04' W 063°05'0 0.0
2018-Feb-14 18:24N 18°04' W 063°05'0 0.0
2018-Feb-14 17:54N 18°04' W 063°05'0 0.0
2018-Feb-14 17:27N 18°04' W 063°05'0 0.0
2018-Feb-14 16:57N 18°04' W 063°05'0 0.0
2018-Feb-14 16:27N 18°04' W 063°05'0 0.0
2018-Feb-14 15:57N 18°04' W 063°05'0 0.0
2018-Feb-14 15:30N 18°04' W 063°05'0 0.0
2018-Feb-14 15:00N 18°04' W 063°05'0 0.0
2018-Feb-14 14:12N 18°04' W 063°05'0 0.0
2018-Feb-14 13:57N 18°04' W 063°05'0 0.0
2018-Feb-14 13:30N 18°04' W 063°05'0 0.0
2018-Feb-14 13:00N 18°04' W 063°05'0 0.0
2018-Feb-14 12:30N 18°04' W 063°05'0 0.0
2018-Feb-14 12:00N 18°04' W 063°05'0 0.0
2018-Feb-14 11:30N 18°04' W 063°05'0 0.0
2018-Feb-14 11:00N 18°04' W 063°05'0 0.0
2018-Feb-14 10:30N 18°04' W 063°05'0 0.0
2018-Feb-14 10:00N 18°04' W 063°05'0 0.0
2018-Feb-14 09:30N 18°04' W 063°05'0 0.0
2018-Feb-14 08:51N 18°04' W 063°05'0 0.0
2018-Feb-14 08:21N 18°04' W 063°05'0 0.0
2018-Feb-14 07:54N 18°04' W 063°05'0 0.0
2018-Feb-14 07:18N 18°04' W 063°05'0 0.0
2018-Feb-14 06:54N 18°04' W 063°05'0 0.0
2018-Feb-14 06:24N 18°04' W 063°05'0 0.0
2018-Feb-14 05:54N 18°04' W 063°05'0 0.0
2018-Feb-14 05:24N 18°04' W 063°05'0 0.0
2018-Feb-14 04:57N 18°04' W 063°05'0 0.0
2018-Feb-14 04:27N 18°04' W 063°05'0 0.0
2018-Feb-14 03:57N 18°04' W 063°05'0 0.0
2018-Feb-14 03:27N 18°04' W 063°05'0 0.0
2018-Feb-14 02:57N 18°04' W 063°05'0 0.0
2018-Feb-14 02:27N 18°04' W 063°05'0 0.0
2018-Feb-14 01:57N 18°04' W 063°05'0 0.0
2018-Feb-14 01:30N 18°04' W 063°05'0 0.0
2018-Feb-14 01:00N 18°04' W 063°05'0 0.0
2018-Feb-14 00:30N 18°04' W 063°05'0 0.0
2018-Feb-13 23:57N 18°04' W 063°05'0 0.0
2018-Feb-13 23:30N 18°04' W 063°05'0 0.0
2018-Feb-13 23:00N 18°04' W 063°05'0 0.0
2018-Feb-13 22:30N 18°04' W 063°05'0 0.0
2018-Feb-13 22:00N 18°04' W 063°05'0 0.0
2018-Feb-13 21:30N 18°04' W 063°05'0 0.0
2018-Feb-13 20:48N 18°04' W 063°05'0 0.0
2018-Feb-13 20:30N 18°04' W 063°05'0 0.0
2018-Feb-13 20:00N 18°04' W 063°05'0 0.0
2018-Feb-13 19:21N 18°04' W 063°05'0 0.0
2018-Feb-13 18:51N 18°04' W 063°05'0 0.0
2018-Feb-13 18:24N 18°04' W 063°05'0 0.0
2018-Feb-13 17:54N 18°04' W 063°05'0 0.0
2018-Feb-13 17:24N 18°04' W 063°05'0 0.0
2018-Feb-13 16:54N 18°04' W 063°05'0 0.0
2018-Feb-13 16:24N 18°04' W 063°05'0 0.0
2018-Feb-13 15:51N 18°04' W 063°05'0 0.0
2018-Feb-13 15:24N 18°04' W 063°05'0 0.0
2018-Feb-13 14:54N 18°04' W 063°05'0 0.0
2018-Feb-13 14:27N 18°04' W 063°05'0 0.0
2018-Feb-13 13:54N 18°04' W 063°05'0 0.0
2018-Feb-13 13:27N 18°04' W 063°05'0 0.0
2018-Feb-13 13:00N 18°04' W 063°05'0 0.0
2018-Feb-13 12:30N 18°04' W 063°05'0 0.0
2018-Feb-13 12:00N 18°04' W 063°05'0 0.0
2018-Feb-13 11:30N 18°04' W 063°05'0 0.0
2018-Feb-13 11:00N 18°04' W 063°05'0 0.0
2018-Feb-13 10:30N 18°04' W 063°05'0 0.0
2018-Feb-13 10:00N 18°04' W 063°05'0 0.0
2018-Feb-13 09:15N 18°04' W 063°05'0 0.0
2018-Feb-13 09:00N 18°04' W 063°05'0 0.0
2018-Feb-13 08:30N 18°04' W 063°05'0 0.0
2018-Feb-13 08:00N 18°04' W 063°05'0 0.0
2018-Feb-13 07:30N 18°04' W 063°05'0 0.0
2018-Feb-13 06:48N 18°04' W 063°05'0 0.0
2018-Feb-13 06:21N 18°04' W 063°05'0 0.0
2018-Feb-13 05:51N 18°04' W 063°05'0 0.0
2018-Feb-13 05:06N 18°04' W 063°05'0 0.0
2018-Feb-13 04:51N 18°04' W 063°05'0 0.0
2018-Feb-13 04:24N 18°04' W 063°05'0 0.0
2018-Feb-13 03:54N 18°04' W 063°05'0 0.0
2018-Feb-13 03:24N 18°04' W 063°05'0 0.0
2018-Feb-13 02:51N 18°04' W 063°05'0 0.0
2018-Feb-13 02:24N 18°04' W 063°05'0 0.0
2018-Feb-13 01:54N 18°04' W 063°05'0 0.0
2018-Feb-13 01:27N 18°04' W 063°05'0 0.0
2018-Feb-13 00:57N 18°04' W 063°05'0 0.0
2018-Feb-13 00:27N 18°04' W 063°05'0 0.0
2018-Feb-12 23:57N 18°04' W 063°05'0 0.0
2018-Feb-12 23:24N 18°04' W 063°05'0 0.0
2018-Feb-12 23:00N 18°04' W 063°05'0 0.0
2018-Feb-12 22:30N 18°04' W 063°05'0 0.0
2018-Feb-12 22:00N 18°04' W 063°05'0 0.0
2018-Feb-12 21:15N 18°04' W 063°05'0 0.0
2018-Feb-12 21:00N 18°04' W 063°05'0 0.0
2018-Feb-12 20:30N 18°04' W 063°05'0 0.0
2018-Feb-12 20:00N 18°04' W 063°05'0 0.0
2018-Feb-12 19:30N 18°04' W 063°05'0 0.0
2018-Feb-12 19:00N 18°04' W 063°05'0 0.0
2018-Feb-12 18:30N 18°04' W 063°05'0 0.0
2018-Feb-12 18:00N 18°04' W 063°05'0 0.0
2018-Feb-12 17:30N 18°04' W 063°05'0 0.0
2018-Feb-12 16:51N 18°04' W 063°05'0 0.0
2018-Feb-12 16:30N 18°04' W 063°05'0 0.0
2018-Feb-12 15:03N 18°04' W 063°05'0 0.3
2018-Feb-12 14:53N 18°04' W 063°05'0 0.1
2018-Feb-12 14:24N 18°04' W 063°05'0 0.0
2018-Feb-12 13:54N 18°04' W 063°05'0 0.0
2018-Feb-12 13:24N 18°04' W 063°05'0 0.0
2018-Feb-12 12:54N 18°04' W 063°05'0 0.0
2018-Feb-12 12:24N 18°04' W 063°05'0 0.0
2018-Feb-12 11:57N 18°04' W 063°05'0 0.0
2018-Feb-12 11:24N 18°04' W 063°05'0 0.1
2018-Feb-12 10:52N 18°04' W 063°05'0 0.6
2018-Feb-12 10:25N 18°04' W 063°06'0 0.3
2018-Feb-12 10:00N 18°04' W 063°06'0 0.3
2018-Feb-12 09:29N 18°04' W 063°06'0 0.6
2018-Feb-12 09:00N 18°04' W 063°06'0 0.7
2018-Feb-12 08:29N 18°04' W 063°06'0 0.1
2018-Feb-12 08:00N 18°04' W 063°05'1 1.3
2018-Feb-12 07:27N 18°05' W 063°06'1 2.9
2018-Feb-12 06:57N 18°05' W 063°08'1 2.3
2018-Feb-12 06:27N 18°05' W 063°09'1 2.3
2018-Feb-12 05:58N 18°04' W 063°09'2 4.9
2018-Feb-12 05:27N 18°01' W 063°08'4 8.1
2018-Feb-12 04:57N 17°58' W 063°07'4 8.5
2018-Feb-12 04:27N 17°53' W 063°06'4 8.1
2018-Feb-12 03:55N 17°50' W 063°04'4 8.4
2018-Feb-12 03:24N 17°46' W 063°02'4 8.3
2018-Feb-12 02:56N 17°42' W 063°00'  
Track history (hours):
 
Tides and Currents Weather Stations Pressure Air Temp Water Temp Dewpoint Dewpoint Depression Visibility Wind Speed Wind Dir Waves Ship Positions

Vahine

Last reported at 2018-Feb-20 18:49 UTC. Time now 2018-Feb-20 19:37 UTC.
Position N 17°17' W 062°46'.

Length 20 m.

Type: Sailing vessel. MMSI: 230125970.

Date/timePositionNaut miles runAvg speedWind from/ knotsBaromVisibWave heightAir tempDewpointWater temp
2018-Feb-20 18:49N 17°17' W 062°46'11 5.4
2018-Feb-20 16:45N 17°23' W 062°56'24 1.2
2018-Feb-19 21:18N 17°38' W 063°15'1 0.1
2018-Feb-19 17:14N 17°38' W 063°16'3 8.6
2018-Feb-19 16:57N 17°40' W 063°15'5 9.1
2018-Feb-19 16:26N 17°45' W 063°14'5 9.2
2018-Feb-19 15:53N 17°49' W 063°12'5 9.2
2018-Feb-19 15:22N 17°54' W 063°12'4 9.0
2018-Feb-19 14:54N 17°58' W 063°12'5 8.4
2018-Feb-19 14:20N 18°03' W 063°12'3 8.3
2018-Feb-19 14:00N 18°06' W 063°11'6 0.1
2018-Feb-17 17:28N 18°11' W 063°10'3 5.5
2018-Feb-17 16:57N 18°08' W 063°10'4 7.6
2018-Feb-17 16:28N 18°06' W 063°07'2 4.4
2018-Feb-17 15:57N 18°04' W 063°05'0 0.4
2018-Feb-17 15:27N 18°04' W 063°05'0 0.0
2018-Feb-17 14:51N 18°04' W 063°05'0 0.0
2018-Feb-17 14:27N 18°04' W 063°05'0 0.0
2018-Feb-17 13:54N 18°04' W 063°05'0 0.0
2018-Feb-17 13:27N 18°04' W 063°05'0 0.0
2018-Feb-17 12:54N 18°04' W 063°05'0 0.0
2018-Feb-17 12:27N 18°04' W 063°05'0 0.0
2018-Feb-17 12:00N 18°04' W 063°05'0 0.0
2018-Feb-17 11:30N 18°04' W 063°05'0 0.0
2018-Feb-17 11:00N 18°04' W 063°05'0 0.0
2018-Feb-17 10:30N 18°04' W 063°05'0 0.0
2018-Feb-17 09:45N 18°04' W 063°05'0 0.0
2018-Feb-17 09:30N 18°04' W 063°05'0 0.0
2018-Feb-17 09:00N 18°04' W 063°05'0 0.0
2018-Feb-17 08:30N 18°04' W 063°05'0 0.0
2018-Feb-17 08:00N 18°04' W 063°05'0 0.0
2018-Feb-17 07:30N 18°04' W 063°05'0 0.0
2018-Feb-17 07:00N 18°04' W 063°05'0 0.0
2018-Feb-17 06:30N 18°04' W 063°05'0 0.0
2018-Feb-17 06:00N 18°04' W 063°05'0 0.0
2018-Feb-17 05:21N 18°04' W 063°05'0 0.0
2018-Feb-17 04:48N 18°04' W 063°05'0 0.0
2018-Feb-17 04:21N 18°04' W 063°05'0 0.0
2018-Feb-17 03:54N 18°04' W 063°05'0 0.0
2018-Feb-17 03:24N 18°04' W 063°05'0 0.0
2018-Feb-17 02:48N 18°04' W 063°05'0 0.0
2018-Feb-17 02:24N 18°04' W 063°05'0 0.0
2018-Feb-17 01:57N 18°04' W 063°05'0 0.0
2018-Feb-17 01:24N 18°04' W 063°05'0 0.0
2018-Feb-17 00:57N 18°04' W 063°05'0 0.0
2018-Feb-17 00:27N 18°04' W 063°05'0 0.0
2018-Feb-16 23:57N 18°04' W 063°05'0 0.0
2018-Feb-16 23:27N 18°04' W 063°05'0 0.0
2018-Feb-16 22:57N 18°04' W 063°05'0 0.0
2018-Feb-16 22:30N 18°04' W 063°05'0 0.0
2018-Feb-16 22:00N 18°04' W 063°05'0 0.0
2018-Feb-16 21:30N 18°04' W 063°05'0 0.0
2018-Feb-16 20:57N 18°04' W 063°05'0 0.0
2018-Feb-16 20:30N 18°04' W 063°05'0 0.0
2018-Feb-16 20:00N 18°04' W 063°05'0 0.0
2018-Feb-16 19:30N 18°04' W 063°05'0 0.0
2018-Feb-16 18:57N 18°04' W 063°05'0 0.0
2018-Feb-16 18:30N 18°04' W 063°05'0 0.0
2018-Feb-16 18:00N 18°04' W 063°05'0 0.0
2018-Feb-16 17:30N 18°04' W 063°05'0 0.0
2018-Feb-16 17:00N 18°04' W 063°05'0 0.0
2018-Feb-16 16:21N 18°04' W 063°05'0 0.0
2018-Feb-16 15:51N 18°04' W 063°05'0 0.0
2018-Feb-16 15:18N 18°04' W 063°05'0 0.0
2018-Feb-16 14:51N 18°04' W 063°05'0 0.0
2018-Feb-16 14:21N 18°04' W 063°05'0 0.0
2018-Feb-16 13:54N 18°04' W 063°05'0 0.0
2018-Feb-16 13:24N 18°04' W 063°05'0 0.0
2018-Feb-16 12:54N 18°04' W 063°05'0 0.0
2018-Feb-16 12:24N 18°04' W 063°05'0 0.0
2018-Feb-16 11:54N 18°04' W 063°05'0 0.0
2018-Feb-16 11:27N 18°04' W 063°05'0 0.0
2018-Feb-16 10:57N 18°04' W 063°05'0 0.0
2018-Feb-16 10:27N 18°04' W 063°05'0 0.0
2018-Feb-16 09:54N 18°04' W 063°05'0 0.0
2018-Feb-16 09:27N 18°04' W 063°05'0 0.0
2018-Feb-16 08:57N 18°04' W 063°05'0 0.0
2018-Feb-16 08:30N 18°04' W 063°05'0 0.0
2018-Feb-16 08:00N 18°04' W 063°05'0 0.0
2018-Feb-16 07:30N 18°04' W 063°05'0 0.0
2018-Feb-16 07:00N 18°04' W 063°05'0 0.0
2018-Feb-16 06:30N 18°04' W 063°05'0 0.0
2018-Feb-16 06:00N 18°04' W 063°05'0 0.0
2018-Feb-16 05:30N 18°04' W 063°05'0 0.0
2018-Feb-16 04:48N 18°04' W 063°05'0 0.0
2018-Feb-16 04:18N 18°04' W 063°05'0 0.0
2018-Feb-16 04:00N 18°04' W 063°05'0 0.0
2018-Feb-16 03:30N 18°04' W 063°05'0 0.0
2018-Feb-16 02:51N 18°04' W 063°05'0 0.0
2018-Feb-16 02:30N 18°04' W 063°05'0 0.0
2018-Feb-16 01:51N 18°04' W 063°05'0 0.0
2018-Feb-16 01:09N 18°04' W 063°05'0 0.0
2018-Feb-16 00:51N 18°04' W 063°05'0 0.0
2018-Feb-16 00:24N 18°04' W 063°05'0 0.0
2018-Feb-15 23:54N 18°04' W 063°05'0 0.0
2018-Feb-15 23:09N 18°04' W 063°05'0 0.0
2018-Feb-15 22:51N 18°04' W 063°05'0 0.0
2018-Feb-15 22:24N 18°04' W 063°05'0 0.0
2018-Feb-15 21:54N 18°04' W 063°05'0 0.0
2018-Feb-15 21:27N 18°04' W 063°05'0 0.0
2018-Feb-15 20:54N 18°04' W 063°05'0 0.0
2018-Feb-15 20:27N 18°04' W 063°05'0 0.0
2018-Feb-15 19:57N 18°04' W 063°05'0 0.0
2018-Feb-15 19:27N 18°04' W 063°05'0 0.0
2018-Feb-15 18:57N 18°04' W 063°05'0 0.0
2018-Feb-15 18:27N 18°04' W 063°05'0 0.0
2018-Feb-15 18:00N 18°04' W 063°05'0 0.0
2018-Feb-15 17:30N 18°04' W 063°05'0 0.0
2018-Feb-15 17:00N 18°04' W 063°05'0 0.0
2018-Feb-15 16:30N 18°04' W 063°05'0 0.0
2018-Feb-15 16:00N 18°04' W 063°05'0 0.0
2018-Feb-15 15:30N 18°04' W 063°05'0 0.0
2018-Feb-15 15:00N 18°04' W 063°05'0 0.0
2018-Feb-15 14:30N 18°04' W 063°05'0 0.0
2018-Feb-15 14:00N 18°04' W 063°05'0 0.0
2018-Feb-15 13:30N 18°04' W 063°05'0 0.0
2018-Feb-15 13:00N 18°04' W 063°05'0 0.0
2018-Feb-15 12:21N 18°04' W 063°05'0 0.0
2018-Feb-15 11:48N 18°04' W 063°05'0 0.0
2018-Feb-15 11:18N 18°04' W 063°05'0 0.0
2018-Feb-15 10:54N 18°04' W 063°05'0 0.0
2018-Feb-15 10:24N 18°04' W 063°05'0 0.0
2018-Feb-15 09:54N 18°04' W 063°05'0 0.0
2018-Feb-15 09:24N 18°04' W 063°05'0 0.0
2018-Feb-15 08:51N 18°04' W 063°05'0 0.0
2018-Feb-15 08:24N 18°04' W 063°05'0 0.0
2018-Feb-15 07:57N 18°04' W 063°05'0 0.0
2018-Feb-15 07:27N 18°04' W 063°05'0 0.0
2018-Feb-15 06:57N 18°04' W 063°05'0 0.0
2018-Feb-15 06:24N 18°04' W 063°05'0 0.0
2018-Feb-15 06:00N 18°04' W 063°05'0 0.0
2018-Feb-15 05:30N 18°04' W 063°05'0 0.0
2018-Feb-15 05:00N 18°04' W 063°05'0 0.0
2018-Feb-15 04:30N 18°04' W 063°05'0 0.0
2018-Feb-15 04:00N 18°04' W 063°05'0 0.0
2018-Feb-15 03:30N 18°04' W 063°05'0 0.0
2018-Feb-15 03:00N 18°04' W 063°05'0 0.0
2018-Feb-15 02:27N 18°04' W 063°05'0 0.0
2018-Feb-15 02:00N 18°04' W 063°05'0 0.0
2018-Feb-15 01:30N 18°04' W 063°05'0 0.0
2018-Feb-15 01:00N 18°04' W 063°05'0 0.0
2018-Feb-15 00:30N 18°04' W 063°05'0 0.0
2018-Feb-15 00:00N 18°04' W 063°05'0 0.0
2018-Feb-14 23:30N 18°04' W 063°05'0 0.0
2018-Feb-14 23:00N 18°04' W 063°05'0 0.0
2018-Feb-14 22:21N 18°04' W 063°05'0 0.0
2018-Feb-14 21:54N 18°04' W 063°05'0 0.0
2018-Feb-14 21:24N 18°04' W 063°05'0 0.0
2018-Feb-14 20:54N 18°04' W 063°05'0 0.0
2018-Feb-14 20:24N 18°04' W 063°05'0 0.0
2018-Feb-14 19:39N 18°04' W 063°05'0 0.0
2018-Feb-14 19:24N 18°04' W 063°05'0 0.0
2018-Feb-14 18:57N 18°04' W 063°05'0 0.0
2018-Feb-14 18:24N 18°04' W 063°05'0 0.0
2018-Feb-14 17:54N 18°04' W 063°05'0 0.0
2018-Feb-14 17:27N 18°04' W 063°05'0 0.0
2018-Feb-14 16:57N 18°04' W 063°05'0 0.0
2018-Feb-14 16:27N 18°04' W 063°05'0 0.0
2018-Feb-14 15:57N 18°04' W 063°05'0 0.0
2018-Feb-14 15:30N 18°04' W 063°05'0 0.0
2018-Feb-14 15:00N 18°04' W 063°05'0 0.0
2018-Feb-14 14:12N 18°04' W 063°05'0 0.0
2018-Feb-14 13:57N 18°04' W 063°05'0 0.0
2018-Feb-14 13:30N 18°04' W 063°05'0 0.0
2018-Feb-14 13:00N 18°04' W 063°05'0 0.0
2018-Feb-14 12:30N 18°04' W 063°05'0 0.0
2018-Feb-14 12:00N 18°04' W 063°05'0 0.0
2018-Feb-14 11:30N 18°04' W 063°05'0 0.0
2018-Feb-14 11:00N 18°04' W 063°05'0 0.0
2018-Feb-14 10:30N 18°04' W 063°05'0 0.0
2018-Feb-14 10:00N 18°04' W 063°05'0 0.0
2018-Feb-14 09:30N 18°04' W 063°05'0 0.0
2018-Feb-14 08:51N 18°04' W 063°05'0 0.0
2018-Feb-14 08:21N 18°04' W 063°05'0 0.0
2018-Feb-14 07:54N 18°04' W 063°05'0 0.0
2018-Feb-14 07:18N 18°04' W 063°05'0 0.0
2018-Feb-14 06:54N 18°04' W 063°05'0 0.0
2018-Feb-14 06:24N 18°04' W 063°05'0 0.0
2018-Feb-14 05:54N 18°04' W 063°05'0 0.0
2018-Feb-14 05:24N 18°04' W 063°05'0 0.0
2018-Feb-14 04:57N 18°04' W 063°05'0 0.0
2018-Feb-14 04:27N 18°04' W 063°05'0 0.0
2018-Feb-14 03:57N 18°04' W 063°05'0 0.0
2018-Feb-14 03:27N 18°04' W 063°05'0 0.0
2018-Feb-14 02:57N 18°04' W 063°05'0 0.0
2018-Feb-14 02:27N 18°04' W 063°05'0 0.0
2018-Feb-14 01:57N 18°04' W 063°05'0 0.0
2018-Feb-14 01:30N 18°04' W 063°05'0 0.0
2018-Feb-14 01:00N 18°04' W 063°05'0 0.0
2018-Feb-14 00:30N 18°04' W 063°05'0 0.0
2018-Feb-13 23:57N 18°04' W 063°05'0 0.0
2018-Feb-13 23:30N 18°04' W 063°05'0 0.0
2018-Feb-13 23:00N 18°04' W 063°05'0 0.0
2018-Feb-13 22:30N 18°04' W 063°05'0 0.0
2018-Feb-13 22:00N 18°04' W 063°05'0 0.0
2018-Feb-13 21:30N 18°04' W 063°05'0 0.0
2018-Feb-13 20:48N 18°04' W 063°05'0 0.0
2018-Feb-13 20:30N 18°04' W 063°05'0 0.0
2018-Feb-13 20:00N 18°04' W 063°05'0 0.0
2018-Feb-13 19:21N 18°04' W 063°05'0 0.0
2018-Feb-13 18:51N 18°04' W 063°05'0 0.0
2018-Feb-13 18:24N 18°04' W 063°05'0 0.0
2018-Feb-13 17:54N 18°04' W 063°05'0 0.0
2018-Feb-13 17:24N 18°04' W 063°05'0 0.0
2018-Feb-13 16:54N 18°04' W 063°05'0 0.0
2018-Feb-13 16:24N 18°04' W 063°05'0 0.0
2018-Feb-13 15:51N 18°04' W 063°05'0 0.0
2018-Feb-13 15:24N 18°04' W 063°05'0 0.0
2018-Feb-13 14:54N 18°04' W 063°05'0 0.0
2018-Feb-13 14:27N 18°04' W 063°05'0 0.0
2018-Feb-13 13:54N 18°04' W 063°05'0 0.0
2018-Feb-13 13:27N 18°04' W 063°05'0 0.0
2018-Feb-13 13:00N 18°04' W 063°05'0 0.0
2018-Feb-13 12:30N 18°04' W 063°05'0 0.0
2018-Feb-13 12:00N 18°04' W 063°05'0 0.0
2018-Feb-13 11:30N 18°04' W 063°05'0 0.0
2018-Feb-13 11:00N 18°04' W 063°05'0 0.0
2018-Feb-13 10:30N 18°04' W 063°05'0 0.0
2018-Feb-13 10:00N 18°04' W 063°05'0 0.0
2018-Feb-13 09:15N 18°04' W 063°05'0 0.0
2018-Feb-13 09:00N 18°04' W 063°05'0 0.0
2018-Feb-13 08:30N 18°04' W 063°05'0 0.0
2018-Feb-13 08:00N 18°04' W 063°05'0 0.0
2018-Feb-13 07:30N 18°04' W 063°05'0 0.0
2018-Feb-13 06:48N 18°04' W 063°05'0 0.0
2018-Feb-13 06:21N 18°04' W 063°05'0 0.0
2018-Feb-13 05:51N 18°04' W 063°05'0 0.0
2018-Feb-13 05:06N 18°04' W 063°05'0 0.0
2018-Feb-13 04:51N 18°04' W 063°05'0 0.0
2018-Feb-13 04:24N 18°04' W 063°05'0 0.0
2018-Feb-13 03:54N 18°04' W 063°05'0 0.0
2018-Feb-13 03:24N 18°04' W 063°05'0 0.0
2018-Feb-13 02:51N 18°04' W 063°05'0 0.0
2018-Feb-13 02:24N 18°04' W 063°05'0 0.0
2018-Feb-13 01:54N 18°04' W 063°05'0 0.0
2018-Feb-13 01:27N 18°04' W 063°05'0 0.0
2018-Feb-13 00:57N 18°04' W 063°05'0 0.0
2018-Feb-13 00:27N 18°04' W 063°05'0 0.0
2018-Feb-12 23:57N 18°04' W 063°05'0 0.0
2018-Feb-12 23:24N 18°04' W 063°05'0 0.0
2018-Feb-12 23:00N 18°04' W 063°05'0 0.0
2018-Feb-12 22:30N 18°04' W 063°05'0 0.0
2018-Feb-12 22:00N 18°04' W 063°05'0 0.0
2018-Feb-12 21:15N 18°04' W 063°05'0 0.0
2018-Feb-12 21:00N 18°04' W 063°05'0 0.0
2018-Feb-12 20:30N 18°04' W 063°05'0 0.0
2018-Feb-12 20:00N 18°04' W 063°05'0 0.0
2018-Feb-12 19:30N 18°04' W 063°05'0 0.0
2018-Feb-12 19:00N 18°04' W 063°05'0 0.0
2018-Feb-12 18:30N 18°04' W 063°05'0 0.0
2018-Feb-12 18:00N 18°04' W 063°05'0 0.0
2018-Feb-12 17:30N 18°04' W 063°05'0 0.0
2018-Feb-12 16:51N 18°04' W 063°05'0 0.0
2018-Feb-12 16:30N 18°04' W 063°05'0 0.0
2018-Feb-12 15:03N 18°04' W 063°05'0 0.3
2018-Feb-12 14:53N 18°04' W 063°05'0 0.1
2018-Feb-12 14:24N 18°04' W 063°05'0 0.0
2018-Feb-12 13:54N 18°04' W 063°05'0 0.0
2018-Feb-12 13:24N 18°04' W 063°05'0 0.0
2018-Feb-12 12:54N 18°04' W 063°05'0 0.0
2018-Feb-12 12:24N 18°04' W 063°05'0 0.0
2018-Feb-12 11:57N 18°04' W 063°05'0 0.0
2018-Feb-12 11:24N 18°04' W 063°05'0 0.1
2018-Feb-12 10:52N 18°04' W 063°05'0 0.6
2018-Feb-12 10:25N 18°04' W 063°06'0 0.3
2018-Feb-12 10:00N 18°04' W 063°06'0 0.3
2018-Feb-12 09:29N 18°04' W 063°06'0 0.6
2018-Feb-12 09:00N 18°04' W 063°06'0 0.7
2018-Feb-12 08:29N 18°04' W 063°06'0 0.1
2018-Feb-12 08:00N 18°04' W 063°05'1 1.3
2018-Feb-12 07:27N 18°05' W 063°06'1 2.9
2018-Feb-12 06:57N 18°05' W 063°08'1 2.3
2018-Feb-12 06:27N 18°05' W 063°09'1 2.3
2018-Feb-12 05:58N 18°04' W 063°09'2 4.9
2018-Feb-12 05:27N 18°01' W 063°08'4 8.1
2018-Feb-12 04:57N 17°58' W 063°07'4 8.5
2018-Feb-12 04:27N 17°53' W 063°06'4 8.1
2018-Feb-12 03:55N 17°50' W 063°04'4 8.4
2018-Feb-12 03:24N 17°46' W 063°02'4 8.3
2018-Feb-12 02:56N 17°42' W 063°00'  

Dump ship's entire track history